Streatley Hill (HCC005 TT course)

Reading, West Berkshire, United Kingdom
  • Distance
    0.7 km
  • Elevation
    100 m
  • Grade
    13%

Overall Leaderboard

Speed Power
VAM
Time
1 Cameron B. 21.3km/h 536 2,811.8 2:08
2 Andy N. 19.5km/h 547 2,570.8 2:20
2 Matthew C. 19.5km/h 515 2,570.8 2:20
2 Craig Rogers 19.5km/h 546 2,570.8 2:20
5 Isaac M. 18.7km/h 566 2,465.2 2:26
6 Daniel S. 18.4km/h 547 2,431.9 2:28
6 Adam Kenway 18.4km/h 550 2,431.9 2:28
8 Richard G. 18.3km/h 514 2,415.5 2:29
9 Jimmy Hayward 18.2km/h 444 2,399.4 2:30
9 James Bevan 18.2km/h 589 2,399.4 2:30

Women's Leaderboard

Speed Power
VAM
Time
1 Emma Grant 14.7km/h 411 1,935.0 3:06
2 Maryka S. 14.4km/h 328 1,904.3 3:09
3 Bithja Jones /Pankhurst Cycles 14.3km/h 336 1,884.4 3:11
3 Alice L. 14.3km/h 387 1,884.4 3:11
5 Frances Owen 13.9km/h 396 1,836.3 3:16
6 Faith F. 12.7km/h - 1,681.8 3:34
7 Jacintha L. 12.7km/h 315 1,674.0 3:35
7 Rosamund B. 12.7km/h 362 1,674.0 3:35
9 Nikki S. 12.3km/h 464 1,621.2 3:42
10 Olivia B. 12.2km/h 283 1,614.0 3:43